Time;durP1;ratioP1;P1;durP2;ratioP2;P2;SDS_P1;SDS_P2;PMS_P1;PMS_P2;Temp;Humidity;BMP_temperature;BMP_pressure;BME280_temperature;BME280_humidity;BME280_pressure;Samples;Min_cycle;Max_cycle;Signal;HPM_P1;HPM_P2
2021/12/02 00:01:35;;;;;;;16.67;9.05;;;3.00;99.90;;;;;;5053142;28;20051;-56
2021/12/02 00:04:02;;;;;;;15.52;8.60;;;3.10;99.90;;;;;;5070240;28;20032;-54
2021/12/02 00:06:29;;;;;;;16.77;8.45;;;3.20;99.90;;;;;;5070552;28;20106;-56
2021/12/02 00:08:56;;;;;;;12.30;6.38;;;3.10;99.90;;;;;;5070668;28;20041;-52
2021/12/02 00:11:23;;;;;;;16.65;8.55;;;3.10;99.90;;;;;;5068042;28;20044;-53
2021/12/02 00:16:34;;;;;;;17.27;8.50;;;3.10;99.90;;;;;;5051990;28;20045;-55
2021/12/02 00:21:52;;;;;;;19.83;9.27;;;3.10;99.90;;;;;;5075216;28;20059;-55
2021/12/02 00:24:23;;;;;;;17.50;10.07;;;3.10;99.90;;;;;;5074862;28;20484;-57
2021/12/02 00:26:51;;;;;;;20.90;9.20;;;3.20;99.90;;;;;;5074823;28;20098;-52
2021/12/02 00:29:20;;;;;;;9.93;4.95;;;3.20;99.90;;;;;;5071019;28;20066;-54
2021/12/02 00:31:50;;;;;;;9.90;5.65;;;3.20;99.90;;;;;;5057083;28;20044;-53
2021/12/02 00:34:18;;;;;;;19.70;9.27;;;3.10;99.90;;;;;;5070583;28;20052;-56
2021/12/02 00:36:44;;;;;;;;;;;3.20;99.90;;;;;;5071073;28;20048;-55
2021/12/02 00:39:14;;;;;;;17.35;9.70;;;3.20;99.90;;;;;;5074970;28;19921;-56
2021/12/02 00:41:42;;;;;;;19.35;9.85;;;3.30;99.90;;;;;;5074667;28;20049;-56
2021/12/02 00:44:11;;;;;;;16.27;9.57;;;3.30;99.90;;;;;;5072836;28;20044;-53
2021/12/02 00:46:38;;;;;;;19.92;10.48;;;3.30;99.90;;;;;;5067152;28;20052;-53
2021/12/02 00:49:10;;;;;;;;;;;3.30;99.90;;;;;;5063183;28;20045;-53
2021/12/02 00:51:39;;;;;;;21.33;11.45;;;3.20;99.90;;;;;;5054570;28;20281;-53
2021/12/02 00:54:08;;;;;;;24.88;11.35;;;3.20;99.90;;;;;;5054625;28;20067;-56
2021/12/02 00:56:36;;;;;;;24.23;11.45;;;3.20;99.90;;;;;;5054532;28;20040;-53
2021/12/02 00:59:04;;;;;;;23.80;11.90;;;3.20;99.90;;;;;;5054596;28;20512;-54
2021/12/02 01:01:35;;;;;;;26.55;10.90;;;3.20;99.90;;;;;;5054095;28;20045;-56
2021/12/02 01:04:07;;;;;;;17.60;9.18;;;3.20;99.90;;;;;;5054185;28;20047;-56
2021/12/02 01:06:34;;;;;;;14.30;8.15;;;3.10;99.90;;;;;;5054444;28;20049;-56
2021/12/02 01:09:02;;;;;;;17.02;9.68;;;3.10;99.90;;;;;;5054193;28;20044;-56
2021/12/02 01:11:29;;;;;;;20.52;11.00;;;3.10;99.90;;;;;;5054305;28;20060;-55
2021/12/02 01:13:56;;;;;;;21.25;10.85;;;3.00;99.90;;;;;;5054027;28;20048;-54
2021/12/02 01:16:22;;;;;;;21.65;11.68;;;3.10;99.90;;;;;;5054303;28;20047;-54
2021/12/02 01:18:50;;;;;;;20.23;11.07;;;3.00;99.90;;;;;;5054256;28;20036;-57
2021/12/02 01:21:24;;;;;;;19.08;11.18;;;3.10;99.90;;;;;;5053975;28;20047;-54
2021/12/02 01:24:03;;;;;;;21.60;11.88;;;3.10;99.90;;;;;;5053800;28;20048;-55
2021/12/02 01:26:32;;;;;;;21.20;11.65;;;3.10;99.90;;;;;;5053710;28;20036;-55
2021/12/02 01:29:01;;;;;;;22.30;11.10;;;3.10;99.90;;;;;;5054154;28;20045;-54
2021/12/02 01:31:35;;;;;;;20.83;10.50;;;3.20;99.90;;;;;;5053768;28;20052;-54
2021/12/02 01:34:08;;;;;;;19.00;10.73;;;3.20;99.90;;;;;;5053532;28;20041;-55
2021/12/02 01:36:40;;;;;;;21.83;11.82;;;3.20;99.90;;;;;;5053773;28;20072;-55
2021/12/02 01:39:08;;;;;;;20.23;10.60;;;3.20;99.90;;;;;;5053983;28;20048;-56
2021/12/02 01:41:42;;;;;;;10.57;6.60;;;3.10;99.90;;;;;;5053677;28;20037;-55
2021/12/02 01:44:12;;;;;;;11.30;6.40;;;3.10;99.90;;;;;;5053523;28;20413;-55
2021/12/02 01:46:41;;;;;;;9.45;5.72;;;3.10;99.90;;;;;;5053669;28;20041;-53
2021/12/02 01:49:11;;;;;;;13.48;7.43;;;3.10;99.90;;;;;;5053549;28;20044;-54
2021/12/02 01:51:40;;;;;;;12.77;7.55;;;3.10;99.90;;;;;;5053581;28;20052;-56
2021/12/02 01:54:12;;;;;;;13.20;7.20;;;3.10;99.90;;;;;;5053174;28;20049;-55
2021/12/02 01:56:50;;;;;;;11.60;6.75;;;3.10;99.90;;;;;;5053537;28;20045;-55
2021/12/02 01:59:33;;;;;;;16.75;9.25;;;3.00;99.90;;;;;;5053451;28;20045;-55
2021/12/02 02:02:03;;;;;;;19.33;9.40;;;3.00;99.90;;;;;;5053213;28;20045;-56
2021/12/02 02:04:30;;;;;;;21.00;10.27;;;3.00;99.90;;;;;;5052982;28;20041;-55
2021/12/02 02:07:05;;;;;;;16.70;9.77;;;3.00;99.90;;;;;;5052946;28;20429;-55
2021/12/02 02:09:35;;;;;;;;;;;3.00;99.90;;;;;;5053766;28;20037;-56
2021/12/02 02:12:07;;;;;;;15.57;8.45;;;3.00;99.90;;;;;;5053191;28;19921;-52
2021/12/02 02:14:34;;;;;;;18.48;10.20;;;3.00;99.90;;;;;;5052074;28;20053;-54
2021/12/02 02:17:09;;;;;;;20.50;10.27;;;2.90;99.90;;;;;;5053018;28;20490;-53
2021/12/02 02:19:36;;;;;;;21.20;11.52;;;3.00;99.90;;;;;;5053415;28;20436;-55
2021/12/02 02:22:05;;;;;;;21.65;10.38;;;3.10;99.90;;;;;;5052906;28;20045;-55
2021/12/02 02:24:32;;;;;;;20.50;10.95;;;3.10;99.90;;;;;;5052575;28;20402;-55
2021/12/02 02:26:59;;;;;;;20.92;11.35;;;3.10;99.90;;;;;;5052730;28;20048;-56
2021/12/02 02:29:26;;;;;;;18.55;10.55;;;3.10;99.90;;;;;;5052926;28;20383;-55
2021/12/02 02:31:53;;;;;;;23.13;13.02;;;3.10;99.90;;;;;;5052886;28;20049;-55
2021/12/02 02:34:24;;;;;;;23.27;12.88;;;3.10;99.90;;;;;;5052400;28;20049;-55
2021/12/02 02:36:54;;;;;;;24.08;11.48;;;3.20;99.90;;;;;;5052899;28;20049;-52
2021/12/02 02:39:22;;;;;;;23.80;11.98;;;3.20;99.90;;;;;;5052088;28;20048;-55
2021/12/02 02:41:57;;;;;;;24.05;11.48;;;3.20;99.90;;;;;;5052667;28;20115;-56
2021/12/02 02:44:25;;;;;;;21.83;10.07;;;3.20;99.90;;;;;;5052309;28;20049;-54
2021/12/02 02:46:52;;;;;;;21.50;10.18;;;3.10;99.90;;;;;;5052635;28;20409;-53
2021/12/02 02:49:19;;;;;;;23.17;11.52;;;3.10;99.90;;;;;;5052365;28;20512;-53
2021/12/02 02:51:47;;;;;;;23.50;11.63;;;3.20;99.90;;;;;;5052482;28;20053;-55
2021/12/02 02:54:16;;;;;;;17.67;9.93;;;3.10;99.90;;;;;;5051985;28;20131;-52
2021/12/02 02:56:51;;;;;;;16.98;9.60;;;3.10;99.90;;;;;;5052625;28;20110;-52
2021/12/02 03:02:10;;;;;;;17.40;8.40;;;3.10;99.90;;;;;;5052224;28;20041;-54
2021/12/02 03:04:58;;;;;;;13.48;8.07;;;3.00;99.90;;;;;;5052055;28;20083;-56
2021/12/02 03:12:38;;;;;;;13.27;7.18;;;3.00;99.90;;;;;;5052157;28;20124;-52
2021/12/02 03:17:33;;;;;;;15.02;8.15;;;3.10;99.90;;;;;;5051999;28;20056;-56
2021/12/02 03:20:02;;;;;;;14.15;7.72;;;3.10;99.90;;;;;;5052228;28;20118;-55
2021/12/02 03:22:29;;;;;;;14.27;7.43;;;3.10;99.90;;;;;;5051898;28;20048;-55
2021/12/02 03:24:56;;;;;;;12.40;6.75;;;3.10;99.90;;;;;;5051465;28;20102;-55
2021/12/02 03:27:24;;;;;;;14.23;6.78;;;3.10;99.90;;;;;;5050854;28;20052;-52
2021/12/02 03:29:50;;;;;;;11.90;6.55;;;3.10;99.90;;;;;;5051101;28;20041;-55
2021/12/02 03:32:18;;;;;;;8.48;3.88;;;3.10;99.90;;;;;;5050805;28;20099;-55
2021/12/02 03:34:45;;;;;;;7.50;3.72;;;3.00;99.90;;;;;;5050640;28;20118;-55
2021/12/02 03:37:12;;;;;;;7.88;3.17;;;2.90;99.90;;;;;;5050941;28;20041;-53
2021/12/02 03:39:39;;;;;;;9.27;4.65;;;2.90;99.90;;;;;;5050673;28;20049;-55
2021/12/02 03:42:06;;;;;;;7.63;4.63;;;2.90;99.90;;;;;;5050778;28;20044;-55
2021/12/02 03:44:33;;;;;;;8.43;4.35;;;3.00;99.90;;;;;;5050464;28;20559;-53
2021/12/02 03:47:01;;;;;;;8.52;4.70;;;2.90;99.90;;;;;;5050717;28;20047;-54
2021/12/02 03:49:28;;;;;;;7.18;4.13;;;2.90;99.90;;;;;;5050909;28;20098;-53
2021/12/02 03:51:55;;;;;;;4.63;2.50;;;2.80;99.90;;;;;;5049504;28;20493;-52
2021/12/02 03:54:22;;;;;;;4.45;2.25;;;2.80;99.90;;;;;;5050251;28;20051;-54
2021/12/02 03:56:49;;;;;;;3.42;2.20;;;2.90;99.90;;;;;;5050600;28;20126;-55
2021/12/02 03:59:16;;;;;;;5.50;3.13;;;2.80;99.90;;;;;;5050744;28;20056;-55
2021/12/02 04:01:43;;;;;;;3.90;2.40;;;2.80;99.90;;;;;;5050339;28;20551;-55
2021/12/02 04:04:10;;;;;;;5.38;3.45;;;2.80;99.90;;;;;;5050207;28;20041;-54
2021/12/02 04:06:37;;;;;;;7.43;3.97;;;2.80;99.90;;;;;;5050535;28;20056;-54
2021/12/02 04:09:11;;;;;;;7.88;4.10;;;2.80;99.90;;;;;;5050316;28;20124;-55
2021/12/02 04:12:26;;;;;;;7.10;4.05;;;2.80;99.90;;;;;;5032618;28;20056;-55
2021/12/02 04:14:34;;;;;;;10.32;5.45;;;2.80;99.90;;;;;;5039813;28;20136;-55
2021/12/02 04:17:03;;;;;;;6.60;3.50;;;2.90;99.90;;;;;;5050331;28;20099;-54
2021/12/02 04:19:30;;;;;;;3.65;2.35;;;2.80;99.90;;;;;;5050365;28;20045;-53
2021/12/02 04:21:58;;;;;;;6.05;2.63;;;2.80;99.90;;;;;;5050099;28;20060;-55
2021/12/02 04:24:26;;;;;;;6.55;3.05;;;2.80;99.90;;;;;;5049979;28;20041;-56
2021/12/02 04:26:53;;;;;;;5.35;3.28;;;2.70;99.90;;;;;;5050724;28;20033;-52
2021/12/02 04:29:20;;;;;;;5.50;2.90;;;2.70;99.90;;;;;;5051418;28;20449;-53
2021/12/02 04:31:47;;;;;;;4.90;2.55;;;2.70;99.90;;;;;;5051007;28;20041;-55
2021/12/02 04:34:15;;;;;;;3.97;2.67;;;2.80;99.90;;;;;;5050676;28;20055;-52
2021/12/02 04:36:42;;;;;;;5.05;2.47;;;2.70;99.90;;;;;;5050948;28;20056;-54
2021/12/02 04:39:10;;;;;;;4.13;2.60;;;2.80;99.90;;;;;;5051092;28;20060;-53
2021/12/02 04:41:37;;;;;;;4.38;1.83;;;2.80;99.90;;;;;;5051357;28;20041;-54
2021/12/02 04:44:04;;;;;;;4.47;2.88;;;2.80;99.90;;;;;;5050844;28;20124;-52
2021/12/02 04:46:31;;;;;;;3.10;1.98;;;2.80;99.90;;;;;;5050925;28;20049;-52
2021/12/02 04:48:59;;;;;;;6.32;3.17;;;2.80;99.90;;;;;;5050989;28;20039;-52
2021/12/02 04:51:26;;;;;;;5.13;2.75;;;2.80;99.90;;;;;;5051065;28;20056;-56
2021/12/02 04:53:53;;;;;;;4.55;2.63;;;2.80;99.90;;;;;;5050614;28;20124;-54
2021/12/02 04:56:19;;;;;;;5.57;2.85;;;2.80;99.90;;;;;;5050900;28;20044;-52
2021/12/02 04:58:46;;;;;;;5.05;2.58;;;2.80;99.90;;;;;;5050953;28;20049;-56
2021/12/02 05:01:13;;;;;;;8.20;3.58;;;2.80;99.90;;;;;;5050702;28;20095;-52
2021/12/02 05:03:40;;;;;;;6.90;3.85;;;2.70;99.90;;;;;;5053136;28;20049;-56
2021/12/02 05:06:13;;;;;;;6.32;3.72;;;2.70;99.90;;;;;;5054506;28;20047;-55
2021/12/02 05:08:40;;;;;;;7.47;4.00;;;2.60;99.90;;;;;;5054540;28;20048;-54
2021/12/02 05:11:06;;;;;;;7.30;3.95;;;2.60;99.90;;;;;;5054504;28;20049;-55
2021/12/02 05:13:33;;;;;;;6.88;3.47;;;2.70;99.90;;;;;;5053637;28;20127;-54
2021/12/02 05:16:00;;;;;;;5.90;3.65;;;2.70;99.90;;;;;;5054244;28;20044;-56
2021/12/02 05:18:28;;;;;;;7.45;3.88;;;2.70;99.90;;;;;;5054605;28;20090;-51
2021/12/02 05:20:56;;;;;;;9.30;5.45;;;2.70;99.90;;;;;;5054343;28;20405;-53
2021/12/02 05:23:23;;;;;;;8.68;4.70;;;2.70;99.90;;;;;;5053834;28;20045;-54
2021/12/02 05:28:47;;;;;;;12.35;5.10;;;2.80;99.90;;;;;;5011999;28;20054;-57
2021/12/02 05:31:15;;;;;;;4.80;3.00;;;2.80;99.90;;;;;;5013974;28;20049;-52
2021/12/02 05:33:42;;;;;;;;;;;2.80;99.90;;;;;;5008955;28;20633;-54
2021/12/02 05:36:09;;;;;;;4.95;2.35;;;2.80;99.90;;;;;;4995209;28;20271;-52
2021/12/02 05:38:36;;;;;;;6.43;2.72;;;2.80;99.90;;;;;;4994593;28;20693;-54
2021/12/02 05:41:04;;;;;;;4.85;3.10;;;2.80;99.90;;;;;;5009563;28;20050;-54
2021/12/02 05:43:31;;;;;;;6.07;3.20;;;2.90;99.90;;;;;;4993980;28;20046;-51
2021/12/02 05:45:58;;;;;;;4.95;3.20;;;2.90;99.90;;;;;;4994656;28;20038;-51
2021/12/02 05:48:25;;;;;;;7.93;4.53;;;3.00;99.90;;;;;;4994632;28;20052;-51
2021/12/02 05:50:52;;;;;;;11.18;7.00;;;2.90;99.90;;;;;;4994331;28;20104;-51
2021/12/02 05:53:19;;;;;;;13.43;7.25;;;3.00;99.90;;;;;;4994076;28;20050;-53
2021/12/02 05:55:46;;;;;;;9.07;5.55;;;3.00;99.90;;;;;;4994084;28;20042;-53
2021/12/02 05:58:14;;;;;;;10.82;5.93;;;3.00;99.90;;;;;;4994205;28;20054;-51
2021/12/02 06:00:43;;;;;;;8.02;4.78;;;2.90;99.90;;;;;;4994020;28;20069;-54
2021/12/02 06:03:10;;;;;;;9.20;3.92;;;3.00;99.90;;;;;;4993303;28;20518;-53
2021/12/02 06:05:37;;;;;;;5.30;3.40;;;3.00;99.90;;;;;;4993944;28;20046;-53
2021/12/02 06:08:05;;;;;;;11.25;4.47;;;3.00;99.90;;;;;;4993779;28;20046;-53
2021/12/02 06:10:32;;;;;;;7.47;3.92;;;2.90;99.90;;;;;;4993724;28;20046;-53
2021/12/02 06:12:58;;;;;;;6.72;4.55;;;2.90;99.90;;;;;;4993037;28;20050;-53
2021/12/02 06:15:25;;;;;;;8.90;4.82;;;2.90;99.90;;;;;;4993203;28;20035;-51
2021/12/02 06:17:52;;;;;;;21.40;9.30;;;2.90;99.90;;;;;;4993864;28;20094;-55
2021/12/02 06:20:20;;;;;;;22.40;11.00;;;2.90;99.90;;;;;;4993600;28;20129;-54
2021/12/02 06:22:47;;;;;;;23.10;10.75;;;2.90;99.90;;;;;;4993793;28;20042;-52
2021/12/02 06:27:53;;;;;;;7.10;4.43;;;3.00;99.90;;;;;;4993741;28;20586;-52
2021/12/02 06:30:23;;;;;;;11.02;4.72;;;2.90;99.90;;;;;;4993442;28;20043;-54
2021/12/02 06:32:50;;;;;;;7.63;3.88;;;2.90;99.90;;;;;;4993606;28;20061;-52
2021/12/02 06:35:18;;;;;;;6.28;3.40;;;2.80;99.90;;;;;;4993432;28;20050;-52
2021/12/02 06:37:46;;;;;;;6.10;3.35;;;2.80;99.90;;;;;;4993390;28;20460;-52
2021/12/02 06:40:14;;;;;;;9.13;5.43;;;2.80;99.90;;;;;;4993391;28;20447;-53
2021/12/02 06:42:41;;;;;;;6.28;4.05;;;2.80;99.90;;;;;;4993255;28;20109;-52
2021/12/02 06:45:09;;;;;;;;;;;2.80;99.90;;;;;;4993435;28;20559;-53
2021/12/02 06:47:40;;;;;;;9.80;3.13;;;2.80;99.90;;;;;;4993486;28;19965;-50
2021/12/02 06:50:19;;;;;;;8.70;4.57;;;2.80;99.90;;;;;;4993202;28;20039;-51
2021/12/02 06:52:48;;;;;;;9.10;4.60;;;2.80;99.90;;;;;;4993515;28;20050;-53
2021/12/02 06:55:15;;;;;;;10.63;5.15;;;2.80;99.90;;;;;;4992757;28;20108;-52
2021/12/02 06:57:42;;;;;;;7.82;4.68;;;2.80;99.90;;;;;;4993089;28;20050;-51
2021/12/02 07:00:12;;;;;;;7.93;4.57;;;2.80;99.90;;;;;;4993007;28;20406;-51
2021/12/02 07:02:40;;;;;;;8.48;4.55;;;2.80;99.90;;;;;;5010870;28;20050;-55
2021/12/02 07:05:10;;;;;;;17.83;9.02;;;2.90;99.90;;;;;;5011703;28;20116;-52
2021/12/02 07:07:37;;;;;;;15.82;8.45;;;2.90;99.90;;;;;;4994385;28;20046;-51
2021/12/02 07:10:06;;;;;;;7.50;4.28;;;2.90;99.90;;;;;;4995421;28;20046;-50
2021/12/02 07:12:33;;;;;;;4.82;2.90;;;3.00;99.90;;;;;;5002773;28;20084;-54
2021/12/02 07:15:26;;;;;;;4.28;2.08;;;2.90;99.90;;;;;;5002614;28;20101;-50
2021/12/02 07:17:56;;;;;;;3.47;1.95;;;2.80;99.90;;;;;;4994997;28;20088;-51
2021/12/02 07:20:25;;;;;;;6.43;2.97;;;2.80;99.90;;;;;;4993290;28;20065;-53
2021/12/02 07:22:52;;;;;;;5.85;2.63;;;2.80;99.90;;;;;;4992553;28;20101;-50
2021/12/02 07:25:19;;;;;;;6.28;3.67;;;2.80;99.90;;;;;;4992299;28;20038;-50
2021/12/02 07:27:47;;;;;;;4.78;3.05;;;2.80;99.90;;;;;;4992264;28;20085;-53
2021/12/02 07:30:14;;;;;;;6.35;3.17;;;2.90;99.90;;;;;;4992702;28;20042;-53
2021/12/02 07:32:42;;;;;;;;;;;2.90;99.90;;;;;;4992959;28;20046;-52
2021/12/02 07:35:13;;;;;;;10.35;5.15;;;3.00;99.90;;;;;;4992261;28;19922;-53
2021/12/02 07:37:43;;;;;;;8.65;5.35;;;3.00;99.90;;;;;;4991985;28;20487;-54
2021/12/02 07:40:10;;;;;;;13.52;7.03;;;3.00;99.90;;;;;;4992499;28;20415;-51
2021/12/02 07:42:37;;;;;;;23.90;10.95;;;3.10;99.90;;;;;;4992319;28;20054;-52
2021/12/02 07:45:08;;;;;;;13.07;7.65;;;3.10;99.90;;;;;;4992074;28;20050;-52
2021/12/02 07:47:39;;;;;;;13.15;7.72;;;3.20;99.90;;;;;;4993817;28;20499;-50
2021/12/02 07:50:11;;;;;;;11.23;6.13;;;3.30;99.90;;;;;;4992295;28;20050;-52
2021/12/02 07:52:52;;;;;;;8.00;4.80;;;3.30;99.90;;;;;;4992291;28;20046;-54
2021/12/02 07:55:20;;;;;;;6.35;4.20;;;3.30;99.90;;;;;;4992092;28;20046;-53
2021/12/02 07:57:47;;;;;;;7.72;3.75;;;3.30;99.90;;;;;;4991940;28;20057;-51
2021/12/02 08:00:16;;;;;;;;;;;3.30;99.90;;;;;;5011787;28;20552;-51
2021/12/02 08:02:48;;;;;;;6.72;3.17;;;3.30;99.90;;;;;;5011707;28;19922;-51
2021/12/02 08:05:16;;;;;;;10.77;5.82;;;3.30;99.90;;;;;;5011478;28;20048;-52
2021/12/02 08:07:44;;;;;;;7.80;4.53;;;3.40;99.90;;;;;;5011373;28;20077;-51
2021/12/02 08:10:13;;;;;;;5.80;3.55;;;3.50;99.90;;;;;;4993685;28;20092;-53
2021/12/02 08:12:46;;;;;;;10.13;4.43;;;3.50;99.90;;;;;;4992298;28;20049;-51
2021/12/02 08:15:19;;;;;;;7.03;4.47;;;3.50;99.90;;;;;;4991707;28;20056;-54
2021/12/02 08:17:46;;;;;;;6.45;4.32;;;3.60;99.90;;;;;;4992174;28;20050;-52
2021/12/02 08:20:14;;;;;;;5.80;3.75;;;3.50;99.90;;;;;;4994537;28;20553;-52
2021/12/02 08:22:41;;;;;;;10.38;5.13;;;3.50;99.90;;;;;;4990894;28;20129;-53
2021/12/02 08:25:09;;;;;;;9.88;4.97;;;3.60;99.90;;;;;;4991622;28;20462;-52
2021/12/02 08:27:35;;;;;;;;;;;3.60;99.90;;;;;;4992412;28;20128;-52
2021/12/02 08:30:04;;;;;;;7.85;4.22;;;3.70;99.90;;;;;;5002073;28;19968;-51
2021/12/02 08:32:31;;;;;;;9.30;4.40;;;3.80;99.90;;;;;;5011560;28;20042;-50
2021/12/02 08:35:00;;;;;;;7.15;4.45;;;3.80;99.90;;;;;;5011123;28;20046;-54
2021/12/02 08:37:30;;;;;;;8.63;4.80;;;3.90;99.90;;;;;;5012133;28;20060;-52
2021/12/02 08:39:59;;;;;;;13.45;7.88;;;3.90;99.90;;;;;;5015192;28;20514;-53
2021/12/02 08:42:32;;;;;;;12.32;6.82;;;4.00;99.90;;;;;;5015282;28;20044;-53
2021/12/02 08:45:02;;;;;;;12.43;7.45;;;4.00;99.90;;;;;;5014872;28;20108;-50
2021/12/02 08:47:29;;;;;;;10.43;5.22;;;4.10;99.90;;;;;;5014087;28;20038;-53
2021/12/02 08:49:57;;;;;;;7.45;4.00;;;4.10;99.90;;;;;;5015073;28;20038;-54
2021/12/02 08:52:27;;;;;;;9.18;4.90;;;4.10;99.90;;;;;;5015106;28;20502;-51
2021/12/02 08:54:54;;;;;;;9.80;6.00;;;4.10;99.90;;;;;;5013937;28;20050;-52
2021/12/02 08:57:41;;;;;;;19.65;12.30;;;4.10;99.90;;;;;;5015054;28;20046;-52
2021/12/02 09:00:11;;;;;;;16.95;10.38;;;4.20;99.90;;;;;;5014948;28;20046;-53
2021/12/02 09:02:38;;;;;;;13.88;9.02;;;4.30;99.90;;;;;;5014907;28;20104;-52
2021/12/02 09:05:06;;;;;;;18.70;11.27;;;4.30;99.90;;;;;;5013969;28;20042;-53
2021/12/02 09:07:33;;;;;;;22.73;10.95;;;4.40;99.90;;;;;;5014746;28;20037;-51
2021/12/02 09:10:00;;;;;;;22.92;10.93;;;4.50;99.90;;;;;;5014698;28;20046;-51
2021/12/02 09:12:27;;;;;;;24.30;11.02;;;4.50;99.90;;;;;;5014736;28;20042;-51
2021/12/02 09:14:54;;;;;;;21.00;10.57;;;4.40;99.90;;;;;;5014333;28;20053;-51
2021/12/02 09:17:21;;;;;;;24.27;11.73;;;4.50;99.90;;;;;;5014391;28;20045;-54
2021/12/02 09:19:48;;;;;;;20.73;10.73;;;4.50;99.90;;;;;;5014555;28;20552;-53
2021/12/02 09:22:15;;;;;;;17.30;9.57;;;4.50;99.90;;;;;;5014480;28;20077;-54
2021/12/02 09:24:42;;;;;;;17.00;8.65;;;4.50;99.90;;;;;;5014123;28;20100;-51
2021/12/02 09:27:09;;;;;;;15.23;7.32;;;4.40;99.90;;;;;;5014165;28;20074;-51
2021/12/02 09:29:36;;;;;;;10.75;6.22;;;4.20;99.90;;;;;;5014431;28;20096;-53
2021/12/02 09:32:04;;;;;;;8.70;4.18;;;4.30;99.90;;;;;;5014410;28;20439;-52
2021/12/02 09:34:31;;;;;;;;;;;4.30;99.90;;;;;;5014376;28;20121;-50
2021/12/02 09:36:58;;;;;;;12.60;4.95;;;4.30;99.90;;;;;;5014303;28;19975;-52
2021/12/02 09:39:30;;;;;;;10.52;5.53;;;4.40;99.90;;;;;;5014097;28;20042;-53
2021/12/02 09:41:58;;;;;;;12.18;6.93;;;4.50;99.90;;;;;;5014089;28;20080;-51
2021/12/02 09:44:29;;;;;;;11.05;6.32;;;4.50;99.90;;;;;;5013823;28;20061;-52
2021/12/02 09:46:56;;;;;;;;;;;4.40;99.90;;;;;;5014430;28;20119;-55
2021/12/02 09:49:24;;;;;;;7.68;4.40;;;4.30;99.90;;;;;;5012823;28;20382;-51
2021/12/02 09:54:26;;;;;;;9.40;5.28;;;4.40;99.90;;;;;;5013560;28;20053;-53
2021/12/02 09:56:56;;;;;;;8.65;5.07;;;4.40;99.90;;;;;;5013879;28;20080;-53
2021/12/02 09:59:26;;;;;;;14.88;7.20;;;4.50;99.90;;;;;;5013657;28;20038;-51
2021/12/02 10:01:58;;;;;;;8.95;5.18;;;4.60;99.90;;;;;;5013605;28;20042;-55
2021/12/02 10:04:27;;;;;;;14.20;6.65;;;4.60;99.90;;;;;;5013386;28;20046;-53
2021/12/02 10:07:17;;;;;;;15.38;8.10;;;4.70;99.90;;;;;;5013641;28;20065;-51
2021/12/02 10:10:12;;;;;;;11.27;6.72;;;4.70;99.90;;;;;;5013592;28;20451;-53
2021/12/02 10:12:49;;;;;;;8.77;5.25;;;4.80;99.90;;;;;;5013655;28;20050;-54
2021/12/02 10:15:18;;;;;;;8.43;5.90;;;4.90;99.90;;;;;;5013133;28;20417;-51
2021/12/02 10:17:48;;;;;;;11.68;6.57;;;4.90;99.90;;;;;;5013695;28;20050;-51
2021/12/02 10:20:28;;;;;;;27.77;12.88;;;4.90;99.90;;;;;;5013485;28;20541;-54
2021/12/02 10:23:04;;;;;;;29.27;13.70;;;4.80;99.90;;;;;;5013365;28;20402;-51
2021/12/02 10:25:33;;;;;;;25.98;14.13;;;4.60;99.90;;;;;;5013397;28;20434;-51
2021/12/02 10:28:09;;;;;;;31.42;15.32;;;4.60;99.90;;;;;;5013113;28;20441;-53
2021/12/02 10:30:41;;;;;;;27.77;14.73;;;4.60;99.90;;;;;;5013521;28;20067;-54
2021/12/02 10:33:09;;;;;;;27.92;14.20;;;4.50;99.90;;;;;;5012931;28;20053;-50
2021/12/02 10:35:47;;;;;;;27.45;15.35;;;4.50;99.90;;;;;;5013166;28;20045;-52
2021/12/02 10:38:36;;;;;;;26.13;14.55;;;4.50;99.90;;;;;;5013351;28;20050;-51
2021/12/02 10:41:08;;;;;;;24.58;13.90;;;4.60;99.90;;;;;;5012980;28;20038;-52
2021/12/02 10:43:36;;;;;;;20.40;12.05;;;4.70;99.90;;;;;;5012565;28;20084;-52
2021/12/02 10:46:15;;;;;;;21.80;12.38;;;4.90;99.90;;;;;;5012935;28;20048;-53
2021/12/02 10:48:49;;;;;;;26.60;13.18;;;5.00;99.90;;;;;;5013100;28;20065;-51
2021/12/02 10:51:39;;;;;;;26.83;13.15;;;5.10;99.90;;;;;;5007978;28;20046;-52
2021/12/02 10:54:13;;;;;;;24.25;13.57;;;5.10;99.90;;;;;;5003365;28;20124;-52
2021/12/02 10:56:46;;;;;;;25.50;14.05;;;5.20;99.90;;;;;;5002986;28;20495;-52
2021/12/02 10:59:46;;;;;;;22.17;13.32;;;5.30;99.90;;;;;;5002163;28;20053;-52
2021/12/02 11:02:22;;;;;;;;;;;5.40;99.90;;;;;;5004307;28;20053;-56
2021/12/02 11:04:55;;;;;;;23.70;13.10;;;5.50;99.90;;;;;;4997694;28;20398;-52
2021/12/02 11:07:25;;;;;;;25.17;13.93;;;5.50;99.90;;;;;;5011584;28;20041;-54
2021/12/02 11:09:53;;;;;;;25.45;13.15;;;5.50;99.90;;;;;;5012205;28;20042;-50
2021/12/02 11:12:32;;;;;;;19.67;12.18;;;5.60;99.90;;;;;;5012180;28;20072;-52
2021/12/02 11:15:09;;;;;;;18.48;10.30;;;5.70;99.90;;;;;;5012248;28;20513;-51
2021/12/02 11:17:38;;;;;;;12.73;8.43;;;5.80;99.90;;;;;;4992551;28;20054;-53
2021/12/02 11:20:09;;;;;;;23.50;10.48;;;5.90;99.90;;;;;;4999770;28;20053;-51
2021/12/02 11:22:36;;;;;;;30.17;15.48;;;6.00;99.90;;;;;;5011849;28;20511;-53
2021/12/02 11:25:08;;;;;;;32.42;15.38;;;6.00;99.90;;;;;;5011810;28;20050;-55
2021/12/02 11:28:14;;;;;;;23.08;11.13;;;6.00;99.90;;;;;;5080012;22;20048;-54
2021/12/02 11:31:16;;;;;;;17.45;9.25;;;6.10;99.90;;;;;;5111859;28;20117;-55
2021/12/02 11:33:45;;;;;;;16.58;8.90;;;6.10;99.90;;;;;;5111670;28;20050;-51
2021/12/02 11:36:18;;;;;;;15.85;9.68;;;6.10;99.90;;;;;;5110229;28;20104;-53
2021/12/02 11:38:45;;;;;;;15.70;8.52;;;6.10;99.90;;;;;;5110069;28;20078;-51
2021/12/02 11:41:14;;;;;;;15.82;8.50;;;6.00;99.90;;;;;;5109226;27;20480;-50
2021/12/02 11:43:40;;;;;;;16.50;8.13;;;6.10;99.90;;;;;;5111145;28;20044;-53
2021/12/02 11:46:09;;;;;;;16.73;8.93;;;5.60;99.90;;;;;;5111537;28;20040;-53
2021/12/02 11:48:39;;;;;;;21.50;9.20;;;5.80;99.90;;;;;;5111617;28;20232;-52
2021/12/02 11:51:19;;;;;;;15.68;8.55;;;5.90;99.90;;;;;;5111823;28;20044;-54
2021/12/02 11:53:47;;;;;;;12.48;6.50;;;6.00;99.90;;;;;;5111664;28;20131;-50
2021/12/02 11:56:17;;;;;;;15.35;7.65;;;6.00;99.90;;;;;;5111977;28;20097;-52
2021/12/02 11:58:45;;;;;;;14.20;6.95;;;6.10;99.90;;;;;;5111802;28;20043;-51
2021/12/02 12:01:20;;;;;;;14.18;7.95;;;6.30;99.90;;;;;;5112108;28;20039;-54
2021/12/02 12:03:49;;;;;;;25.48;10.68;;;6.40;99.90;;;;;;5111443;28;20048;-53
2021/12/02 12:06:22;;;;;;;28.40;15.30;;;6.30;99.90;;;;;;5111889;28;20495;-52
2021/12/02 12:08:51;;;;;;;24.20;12.93;;;6.20;99.90;;;;;;5112062;28;20044;-55
2021/12/02 12:11:27;;;;;;;23.05;11.85;;;6.10;99.90;;;;;;5112029;28;20123;-53
2021/12/02 12:14:03;;;;;;;18.75;10.68;;;6.10;99.90;;;;;;5115541;28;20086;-53
2021/12/02 12:16:34;;;;;;;18.27;10.43;;;6.10;99.90;;;;;;5116083;28;20589;-55
2021/12/02 12:19:32;;;;;;;22.52;11.98;;;6.10;99.90;;;;;;5115993;28;20048;-54
2021/12/02 12:22:05;;;;;;;29.52;14.27;;;6.10;99.90;;;;;;5100592;28;20059;-51
2021/12/02 12:24:47;;;;;;;22.60;11.10;;;6.20;99.90;;;;;;5115609;28;20078;-53
2021/12/02 12:27:26;;;;;;;10.65;6.30;;;6.20;99.90;;;;;;5115780;28;20040;-53
2021/12/02 12:30:24;;;;;;;12.55;6.15;;;6.30;99.90;;;;;;5115981;28;20097;-54
2021/12/02 12:33:06;;;;;;;10.75;4.85;;;6.40;99.90;;;;;;5099843;28;20059;-56
2021/12/02 12:38:28;;;;;;;12.18;6.45;;;6.40;99.90;;;;;;5114702;28;20040;-54
2021/12/02 12:40:57;;;;;;;14.95;6.13;;;6.50;99.90;;;;;;5115143;28;20043;-52
2021/12/02 12:43:30;;;;;;;14.90;6.72;;;6.20;99.90;;;;;;5114565;28;20120;-53
2021/12/02 12:46:06;;;;;;;15.27;7.85;;;6.20;99.90;;;;;;5111335;28;20089;-55
2021/12/02 12:48:33;;;;;;;21.42;10.52;;;6.30;99.90;;;;;;5105700;28;20046;-54
2021/12/02 12:51:09;;;;;;;30.73;16.15;;;6.40;99.90;;;;;;5104728;28;20036;-55
2021/12/02 12:53:38;;;;;;;36.00;16.35;;;6.30;99.90;;;;;;5107695;28;20044;-56
2021/12/02 12:56:09;;;;;;;38.53;17.67;;;6.30;99.90;;;;;;5095635;28;20059;-57
2021/12/02 12:58:57;;;;;;;21.33;12.18;;;6.30;99.90;;;;;;5094711;28;20469;-53
2021/12/02 13:01:26;;;;;;;23.35;12.82;;;6.10;99.90;;;;;;5113329;28;20036;-54
2021/12/02 13:04:14;;;;;;;23.42;12.95;;;5.80;99.90;;;;;;5113346;28;20046;-54
2021/12/02 13:07:06;;;;;;;24.17;12.82;;;5.70;99.90;;;;;;5113476;28;20111;-55
2021/12/02 13:12:37;;;;;;;25.30;13.10;;;5.40;99.90;;;;;;5113018;28;20519;-54
2021/12/02 13:15:06;;;;;;;25.95;13.98;;;5.30;99.90;;;;;;5113398;28;20407;-56
2021/12/02 13:17:51;;;;;;;24.95;14.15;;;5.30;99.90;;;;;;5114326;28;20032;-55
2021/12/02 13:20:22;;;;;;;29.52;14.93;;;5.30;99.90;;;;;;5113028;28;20055;-56
2021/12/02 13:23:28;;;;;;;27.65;14.80;;;5.20;99.90;;;;;;5111266;28;20051;-56
2021/12/02 13:26:06;;;;;;;29.33;14.65;;;5.10;99.90;;;;;;5021809;28;20496;-56
2021/12/02 13:28:39;;;;;;;30.48;16.13;;;4.90;99.90;;;;;;5022353;28;20055;-55
2021/12/02 13:31:09;;;;;;;29.88;16.88;;;4.90;99.90;;;;;;5072518;28;20047;-57
2021/12/02 13:33:41;;;;;;;32.15;17.90;;;4.80;99.90;;;;;;5103602;28;20047;-54
2021/12/02 13:36:12;;;;;;;35.92;19.15;;;4.70;99.90;;;;;;5102926;28;20043;-55
2021/12/02 13:38:41;;;;;;;42.00;20.58;;;4.70;99.90;;;;;;5103757;28;20039;-55